• Join FlightAware (Why Join?)
  • Login
  • US Flag 
10:10PM EDT


 

Airport Tracker/Info


-or-


 

Live Flight TrackerFlight Track Log ✈ SWA962 ✈ 07-Apr-2012 ✈ KMHT - KMCO

Flight Track Log - Related Links

Times and Time Zones

All times are in EDT time to prevent confusion due to time zone crossing. See the SWA962 flight status page for this flight to view local times or setup timezone preferences in your user account.

Time Position Orientation Groundspeed Altitude Reporting Facility
EDT Latitude Longitude Course Direction KTS MPH feet Rate Location/Type
10:57AM 42.9500 -71.4333 328° Northwest 143 165 1,400  Level Boston TRACON
10:58AM 42.9861 -71.4636 31° Northeast 216 249 4,000 3,480 Climbing Boston Center
10:59AM 43.0253 -71.4319 80° East 231 266 8,300 3,780 Climbing Boston Center
11:00AM 43.0389 -71.3264 82° East 203 234 11,600 3,180 Climbing Boston Center
11:01AM 43.0503 -71.2097 83° East 283 326 14,700 3,000 Climbing Boston Center
11:02AM 43.0614 -71.0931 94° East 333 383 17,700 3,120 Climbing Boston Center
11:03AM 43.0533 -70.9342 159° South 368 423 21,000 3,000 Climbing Boston Center
11:04AM 42.9525 -70.8800 206° Southwest 306 352 23,700 2,400 Climbing Boston Center
11:05AM 42.8450 -70.9506 206° Southwest 323 372 25,900 2,040 Climbing Boston Center
11:06AM 42.7333 -71.0239 216° Southwest 379 436 27,800 2,160 Climbing Boston Center
11:07AM 42.6325 -71.1250 217° Southwest 413 475 30,300 2,280 Climbing Boston Center
11:08AM 42.5294 -71.2314 218° Southwest 447 514 32,400 1,980 Climbing Boston Center
11:09AM 42.4306 -71.3375 218° Southwest 453 521 34,300 1,680 Climbing Boston Center
11:10AM 42.3294 -71.4431 216° Southwest 458 527 35,800 1,500 Climbing Boston Center
11:11AM 42.2281 -71.5428 216° Southwest 458 527 37,300 1,320 Climbing Boston Center
11:12AM 42.1267 -71.6422 217° Southwest 458 527 38,500 1,200 Climbing Boston Center
11:13AM 42.0253 -71.7442 217° Southwest 458 527 39,800 720 Climbing Boston Center
11:14AM 41.9258 -71.8431 217° Southwest 458 527 40,000 60 Climbing Boston Center
11:15AM 41.8219 -71.9469 217° Southwest 458 527 40,000  Level Boston Center
11:16AM 41.7225 -72.0478 216° Southwest 458 527 40,000  Level Boston Center
11:17AM 41.6308 -72.1372 217° Southwest 458 527 40,000  Level Boston Center
11:18AM 41.5292 -72.2406 216° Southwest 458 527 40,000  Level Boston Center
11:19AM 41.4272 -72.3378 217° Southwest 458 527 40,000  Level Boston Center
11:20AM 41.3292 -72.4372 215° Southwest 458 527 40,000  Level Boston Center
11:21AM 41.2269 -72.5339 218° Southwest 458 527 40,000  Level Boston Center
11:22AM 41.1269 -72.6383 215° Southwest 458 527 40,000  Level Boston Center
11:23AM 41.0286 -72.7289 216° Southwest 453 521 40,000  Level Boston Center
11:24AM 40.9264 -72.8275 216° Southwest 453 521 40,000  Level Boston Center
11:25AM 40.8258 -72.9228 217° Southwest 453 521 40,000  Level Boston Center
11:26AM 40.7256 -73.0233 216° Southwest 458 527 40,000  Level Boston Center
11:27AM 40.6269 -73.1183 216° Southwest 453 521 40,000  Level Boston Center
11:28AM 40.4597 -73.2769 216° Southwest 433 498 40,000  Level Washington Center
11:29AM 40.3594 -73.3728 216° Southwest 425 489 40,000  Level Washington Center
11:30AM 40.2592 -73.4686 216° Southwest 431 496 40,000  Level Washington Center
11:31AM 40.1547 -73.5694 214° Southwest 427 491 40,000  Level Washington Center
11:32AM 40.0725 -73.6422 216° Southwest 432 497 40,000  Level Washington Center
11:33AM 39.9658 -73.7425 216° Southwest 432 497 40,000  Level Washington Center
11:34AM 39.8672 -73.8344 215° Southwest 432 497 40,000  Level Washington Center
11:35AM 39.8097 -73.8872 216° Southwest 432 497 40,000  Level Washington Center
11:36AM 39.6492 -74.0364 216° Southwest 458 527 40,000  Level Washington Center
11:37AM 39.5503 -74.1300 215° Southwest 458 527 40,000  Level Washington Center
11:38AM 39.4453 -74.2236 215° Southwest 452 520 40,000  Level Washington Center
11:39AM 39.3586 -74.3031 215° Southwest 459 528 40,000  Level Washington Center
11:40AM 39.2511 -74.4017 215° Southwest 459 528 40,000  Level Washington Center
11:41AM 39.1458 -74.4969 216° Southwest 464 534 40,000  Level Washington Center
11:42AM 39.0425 -74.5922 214° Southwest 464 534 40,000  Level Washington Center
11:43AM 38.9328 -74.6869 216° Southwest 470 541 40,000  Level Washington Center
11:44AM 38.8272 -74.7842 214° Southwest 470 541 40,000  Level Washington Center
11:45AM 38.7214 -74.8758 216° Southwest 470 541 40,000  Level Washington Center
11:46AM 38.6156 -74.9725 214° Southwest 470 541 40,000  Level Washington Center
11:47AM 38.5117 -75.0636 215° Southwest 470 541 40,000  Level Washington Center
11:48AM 38.4100 -75.1544 216° Southwest 470 541 40,000  Level Washington Center
11:49AM 38.2997 -75.2558 215° Southwest 465 535 40,000  Level Washington Center
11:50AM 38.1978 -75.3461 213° Southwest 460 529 40,000  Level Washington Center
11:51AM 38.0939 -75.4333 213° Southwest 455 524 40,000  Level Washington Center
11:52AM 37.9897 -75.5206 210° Southwest 450 518 40,000  Level Washington Center
11:53AM 37.8833 -75.5997 211° Southwest 450 518 40,000  Level Washington Center
11:54AM 37.7747 -75.6811 211° Southwest 450 518 40,000  Level Washington Center
11:55AM 37.6661 -75.7622 210° Southwest 455 524 40,000  Level Washington Center
11:56AM 37.5556 -75.8433 205° Southwest 455 524 40,000  Level Washington Center
11:57AM 37.4386 -75.9108 204° Southwest 460 529 40,000  Level Washington Center
11:58AM 37.3236 -75.9758 203° Southwest 460 529 40,000  Level Washington Center
11:59AM 37.2067 -76.0378 203° Southwest 460 529 40,000  Level Washington Center
12:00PM 37.0897 -76.0997 204° Southwest 460 529 40,000  Level Washington Center
12:01PM 36.9725 -76.1664 203° Southwest 460 529 40,000  Level Washington Center
12:02PM 36.8636 -76.2228 216° Southwest 465 535 40,000  Level Washington Center
12:03PM 36.7653 -76.3128 219° Southwest 452 520 40,000  Level Washington Center
12:04PM 36.6686 -76.4103 215° Southwest 452 520 40,000  Level Washington Center
12:05PM 36.5678 -76.4997 216° Southwest 452 520 40,000  Level Washington Center
12:06PM 36.4711 -76.5864 215° Southwest 447 514 40,000  Level Washington Center
12:07PM 36.3703 -76.6753 216° Southwest 447 514 40,000  Level Washington Center
12:08PM 36.2714 -76.7642 216° Southwest 447 514 40,000  Level Washington Center
12:09PM 36.1725 -76.8528 216° Southwest 447 514 40,000  Level Washington Center
12:10PM 36.0628 -76.9514 221° Southwest 447 514 40,000  Level Washington Center
12:11PM 35.9825 -77.0372 220° Southwest 442 509 40,000  Level Washington Center
12:12PM 35.8831 -77.1406 220° Southwest 432 497 40,000  Level Washington Center
12:13PM 35.7900 -77.2358 218° Southwest 432 497 40,000  Level Washington Center
12:14PM 35.6950 -77.3261 220° Southwest 441 507 40,000  Level Washington Center
12:15PM 35.6017 -77.4211 220° Southwest 441 507 40,000  Level Washington Center
12:16PM 35.5083 -77.5158 220° Southwest 441 507 40,000  Level Washington Center
12:17PM 35.4256 -77.6006 218° Southwest 435 501 40,000  Level Washington Center
12:18PM 35.3281 -77.6950 220° Southwest 442 509 40,000  Level Washington Center
12:19PM 35.2325 -77.7917 219° Southwest 448 516 40,000  Level Washington Center
12:20PM 35.1389 -77.8831 219° Southwest 445 512 40,000  Level Washington Center
12:21PM 35.0325 -77.9892 218° Southwest 451 519 40,000  Level Washington Center
12:22PM 34.9347 -78.0825 221° Southwest 451 519 40,000  Level Washington Center
12:23PM 34.8408 -78.1808 219° Southwest 451 519 40,000  Level Washington Center
12:25PM 34.6564 -78.3647 217° Southwest 443 510 40,000  Level Jacksonville Center
12:26PM 34.5656 -78.4478 221° Southwest 443 510 40,000  Level Jacksonville Center
12:27PM 34.4669 -78.5533 218° Southwest 450 518 40,000  Level Jacksonville Center
12:28PM 34.3719 -78.6436 218° Southwest 444 511 40,000  Level Jacksonville Center
12:29PM 34.2769 -78.7339 219° Southwest 444 511 40,000  Level Jacksonville Center
12:30PM 34.1919 -78.8183 214° Southwest 444 511 40,000  Level Jacksonville Center
12:31PM 34.0925 -78.8981 203° Southwest 444 511 40,000  Level Jacksonville Center
12:32PM 33.9775 -78.9583 202° Southwest 439 505 40,000  Level Jacksonville Center
12:33PM 33.8603 -79.0161 202° Southwest 446 513 40,000  Level Jacksonville Center
12:34PM 33.7453 -79.0711 200° South 458 527 40,000  Level Jacksonville Center
12:35PM 33.6153 -79.1267 202° Southwest 458 527 40,000  Level Jacksonville Center
12:36PM 33.4981 -79.1839 202° Southwest 458 527 40,000  Level Jacksonville Center
12:37PM 33.3808 -79.2411 202° Southwest 458 527 40,000  Level Jacksonville Center
12:38PM 33.2636 -79.2981 202° Southwest 458 527 40,000  Level Jacksonville Center
12:39PM 33.1442 -79.3550 202° Southwest 458 527 40,000  Level Jacksonville Center
12:40PM 33.0267 -79.4117 201° Southwest 463 533 40,000  Level Jacksonville Center
12:41PM 32.9114 -79.4656 201° Southwest 463 533 40,000  Level Jacksonville Center
12:42PM 32.7939 -79.5194 203° Southwest 463 533 40,000  Level Jacksonville Center
12:43PM 32.6764 -79.5781 201° Southwest 458 527 40,000  Level Jacksonville Center
12:44PM 32.5608 -79.6317 202° Southwest 453 521 40,000  Level Jacksonville Center
12:45PM 32.4453 -79.6875 202° Southwest 453 521 40,000  Level Jacksonville Center
12:46PM 32.3258 -79.7433 201° Southwest 453 521 40,000  Level Jacksonville Center
12:47PM 32.2081 -79.7964 201° Southwest 453 521 40,000  Level Jacksonville Center
12:48PM 32.0883 -79.8519 201° Southwest 453 521 40,000  Level Jacksonville Center
12:49PM 31.9725 -79.9047 203° Southwest 458 527 40,000  Level Jacksonville Center
12:50PM 31.8550 -79.9625 201° Southwest 458 527 40,000  Level Jacksonville Center
12:51PM 31.7392 -80.0150 201° Southwest 458 527 40,000  Level Jacksonville Center
12:52PM 31.6194 -80.0700 202° Southwest 458 527 40,000 -180 Level Jacksonville Center
12:53PM 31.5017 -80.1247 200° South 458 527 39,700 -660 Descending Jacksonville Center
12:54PM 31.3817 -80.1769 202° Southwest 458 527 38,700 -900 Descending Jacksonville Center
12:55PM 31.2722 -80.2286 202° Southwest 474 545 37,900 -1,200 Descending Jacksonville Center
12:56PM 31.1542 -80.2831 202° Southwest 469 540 36,300 -1,320 Descending Jacksonville Center
12:57PM 31.0322 -80.3397 199° South 468 539 35,300 -960 Descending Jacksonville Center
12:58PM 30.9058 -80.3914 202° Southwest 473 544 34,400 -960 Descending Jacksonville Center
12:59PM 30.7839 -80.4478 203° Southwest 473 544 33,400 -960 Descending Jacksonville Center
01:00PM 30.6639 -80.5064 202° Southwest 468 539 32,500 -960 Descending Jacksonville Center
01:01PM 30.5417 -80.5625 201° Southwest 468 539 31,500 -1,020 Descending Jacksonville Center
01:02PM 30.4194 -80.6161 202° Southwest 468 539 30,500 -780 Descending Jacksonville Center
01:03PM 30.2994 -80.6719 195° South 468 539 30,000 -300 Descending Jacksonville Center
01:04PM 30.1728 -80.7108 197° South 468 539 30,000  Level Jacksonville Center
01:05PM 30.0481 -80.7544 196° South 468 539 30,000  Level Jacksonville Center
01:06PM 29.9256 -80.7956 196° South 468 539 30,000 -240 Level Jacksonville Center
01:07PM 29.7989 -80.8367 197° South 468 539 29,600 -1,140 Descending Jacksonville Center
01:08PM 29.6722 -80.8800 196° South 474 545 27,800 -2,340 Descending Jacksonville Center
01:09PM 29.5519 -80.9206 194° South 466 536 25,000 -2,820 Descending Jacksonville Center
01:10PM 29.4292 -80.9564 197° South 437 503 22,200 -2,700 Descending Jacksonville Center
01:11PM 29.3172 -80.9944 196° South 417 480 19,600 -2,460 Descending Jacksonville Center
01:12PM 29.2092 -81.0297 194° South 409 471 17,300 -2,580 Descending Jacksonville Center
01:13PM 29.1136 -81.0578 194° South 395 455 14,500 -2,640 Descending Jacksonville Center
01:14PM 29.0097 -81.0881 188° South 390 449 12,100 -1,440 Descending Jacksonville Center
01:15PM 28.9117 -81.1042 192° South 383 441 11,700 -780 Descending Jacksonville Center
01:16PM 28.8244 -81.1247 191° South 356 410 10,600 -1,260 Descending Jacksonville Center
01:17PM 28.7411 -81.1428 191° South 324 373 9,200 -780 Descending Jacksonville Center
01:18PM 28.6600 -81.1608 192° South 306 352 9,100 -60 Descending Jacksonville Center
01:19PM 28.5892 -81.1786 190° South 281 323 9,100  Level Jacksonville Center
01:20PM 28.5225 -81.1914 174° South 260 299 9,100 -720 Level Jacksonville Center
01:21PM 28.4500 -81.1833 180° South 252 290 7,700 -1,260 Descending Orlando TRACON
01:22PM 28.3667 -81.1833 180° South 245 282 6,600 -1,140 Descending Orlando TRACON
01:23PM 28.3000 -81.1833 210° Southwest 232 267 5,300 -1,320 Descending Orlando TRACON
01:24PM 28.2500 -81.2167 307° West 237 273 4,000 -1,320 Descending Orlando TRACON
01:26PM 28.2833 -81.2667 344° North 219 252 2,600 -960 Descending Orlando TRACON
01:27PM 28.3333 -81.2833 344° North 158 182 2,000 -900 Descending Orlando TRACON
01:28PM 28.3833 -81.3000 360° North 142 163 800 -1,200 Descending Orlando TRACON
01:35PM 28.4167 -81.3000 360° North  Level FlightAware Approximate